Time;durP1;ratioP1;P1;durP2;ratioP2;P2;SDS_P1;SDS_P2;PMS_P1;PMS_P2;Temp;Humidity;BMP_temperature;BMP_pressure;BME280_temperature;BME280_humidity;BME280_pressure;Samples;Min_cycle;Max_cycle;Signal;HPM_P1;HPM_P2
2021/07/06 00:00:25;;;;;;;;;;;;;;;22.11;50.66;95370.59;1037036;28;1194;-73
2021/07/06 00:00:55;;;;;;;;;;;;;;;22.11;50.66;95372.44;1038890;28;2066;-73
2021/07/06 00:01:26;;;;;;;;;;;;;;;22.12;50.64;95374.78;1038884;28;2559;-73
2021/07/06 00:01:56;;;;;;;;;;;;;;;22.12;50.68;95360.78;1038979;28;1218;-73
2021/07/06 00:02:26;;;;;;;;;;;;;;;22.12;50.55;95366.84;1039514;28;2065;-73
2021/07/06 00:02:56;;;;;;;;;;;;;;;22.12;50.47;95369.50;1034974;28;1206;-73
2021/07/06 00:03:27;;;;;;;;;;;;;;;22.13;50.66;95370.28;1036333;28;1183;-72
2021/07/06 00:03:57;;;;;;;;;;;;;;;22.13;50.65;95373.72;1036509;28;1135;-73
2021/07/06 00:04:27;;;;;;;;;;;;;;;22.13;50.44;95370.28;1036278;28;1085;-73
2021/07/06 00:05:00;;;;;;;;;;;;;;;22.13;50.51;95372.94;1038169;28;2045;-75
2021/07/06 00:05:31;;;;;;;;;;;;;;;22.12;50.46;95366.06;1036539;28;746;-74
2021/07/06 00:06:02;;;;;;;;;;;;;;;22.12;50.41;95366.06;1039445;28;1914;-74
2021/07/06 00:06:32;;;;;;;;;;;;;;;22.13;50.58;95363.16;1039084;28;1778;-73
2021/07/06 00:07:02;;;;;;;;;;;;;;;22.13;50.65;95365.00;1040716;28;1214;-71
2021/07/06 00:07:32;;;;;;;;;;;;;;;22.13;50.49;95368.44;1036616;28;1410;-73
2021/07/06 00:08:03;;;;;;;;;;;;;;;22.13;50.58;95365.78;1038332;28;1499;-72
2021/07/06 00:08:33;;;;;;;;;;;;;;;22.13;50.52;95367.66;1035895;28;804;-70
2021/07/06 00:09:03;;;;;;;;;;;;;;;22.12;50.51;95364.22;1042439;28;1178;-73
2021/07/06 00:09:34;;;;;;;;;;;;;;;22.13;50.50;95370.28;1043199;28;1126;-72
2021/07/06 00:10:04;;;;;;;;;;;;;;;22.12;50.60;95364.22;1036718;28;2020;-72
2021/07/06 00:10:36;;;;;;;;;;;;;;;22.10;50.75;95366.38;1036032;28;2064;-72
2021/07/06 00:11:06;;;;;;;;;;;;;;;22.12;50.80;95366.06;1040235;28;1160;-72
2021/07/06 00:11:36;;;;;;;;;;;;;;;22.12;50.74;95364.22;1036844;28;838;-73
2021/07/06 00:12:07;;;;;;;;;;;;;;;22.13;50.90;95365.78;1040585;28;1195;-72
2021/07/06 00:12:37;;;;;;;;;;;;;;;22.12;51.03;95363.44;1037926;28;764;-72
2021/07/06 00:13:07;;;;;;;;;;;;;;;22.11;50.73;95362.66;1037693;28;1204;-72
2021/07/06 00:13:38;;;;;;;;;;;;;;;22.11;50.71;95357.38;1037824;28;792;-72
2021/07/06 00:14:08;;;;;;;;;;;;;;;22.11;50.87;95367.16;1037549;28;1170;-73
2021/07/06 00:14:38;;;;;;;;;;;;;;;22.11;50.63;95357.38;1040023;28;1203;-72
2021/07/06 00:15:09;;;;;;;;;;;;;;;22.11;50.50;95362.66;1038574;28;2227;-73
2021/07/06 00:15:39;;;;;;;;;;;;;;;22.12;50.73;95363.44;1037821;28;1782;-72
2021/07/06 00:16:09;;;;;;;;;;;;;;;22.11;50.77;95361.88;1039551;28;1008;-73
2021/07/06 00:16:40;;;;;;;;;;;;;;;22.11;50.91;95362.66;1037649;28;1211;-72
2021/07/06 00:17:10;;;;;;;;;;;;;;;22.10;50.67;95361.09;1041389;28;1371;-72
2021/07/06 00:17:41;;;;;;;;;;;;;;;22.11;50.70;95362.66;1038214;28;1859;-73
2021/07/06 00:18:11;;;;;;;;;;;;;;;22.11;50.83;95359.25;1036915;28;967;-72
2021/07/06 00:18:41;;;;;;;;;;;;;;;22.12;50.78;95366.84;1037302;28;1041;-72
2021/07/06 00:19:12;;;;;;;;;;;;;;;22.11;50.53;95362.66;1040029;28;1209;-71
2021/07/06 00:19:42;;;;;;;;;;;;;;;22.10;50.85;95360.28;1040986;28;1092;-72
2021/07/06 00:20:13;;;;;;;;;;;;;;;22.10;50.89;95363.72;1041692;28;840;-73
2021/07/06 00:20:43;;;;;;;;;;;;;;;22.10;50.55;95369.00;1041770;28;1214;-73
2021/07/06 00:21:13;;;;;;;;;;;;;;;22.10;50.64;95363.72;1038210;28;1190;-72
2021/07/06 00:21:44;;;;;;;;;;;;;;;22.10;50.84;95362.94;1038343;28;1132;-73
2021/07/06 00:22:14;;;;;;;;;;;;;;;22.10;50.50;95363.72;1041602;28;1068;-73
2021/07/06 00:22:44;;;;;;;;;;;;;;;22.09;50.83;95362.16;1037413;28;2009;-73
2021/07/06 00:23:15;;;;;;;;;;;;;;;22.09;50.74;95364.03;1038091;28;2056;-73
2021/07/06 00:23:45;;;;;;;;;;;;;;;22.09;50.76;95370.06;1034392;28;1783;-70
2021/07/06 00:24:15;;;;;;;;;;;;;;;22.08;50.70;95360.59;1036899;28;1063;-72
2021/07/06 00:24:46;;;;;;;;;;;;;;;22.08;51.06;95363.25;1037950;28;1147;-72
2021/07/06 00:25:16;;;;;;;;;;;;;;;22.08;50.82;95363.25;1041381;28;1069;-72
2021/07/06 00:25:46;;;;;;;;;;;;;;;22.08;50.75;95359.81;1040189;28;1360;-73
2021/07/06 00:26:17;;;;;;;;;;;;;;;22.07;50.85;95364.28;1037106;28;1910;-73
2021/07/06 00:26:47;;;;;;;;;;;;;;;22.06;50.76;95357.47;1034326;28;1188;-72
2021/07/06 00:27:18;;;;;;;;;;;;;;;22.07;50.89;95364.28;1037196;28;1112;-72
2021/07/06 00:27:48;;;;;;;;;;;;;;;22.08;50.72;95365.88;1037357;28;1226;-73
2021/07/06 00:28:18;;;;;;;;;;;;;;;22.07;50.97;95360.91;1038176;28;2071;-73
2021/07/06 00:28:48;;;;;;;;;;;;;;;22.06;50.86;95356.69;1039123;28;1078;-73
2021/07/06 00:29:19;;;;;;;;;;;;;;;22.05;50.84;95363.81;1037993;28;1187;-73
2021/07/06 00:29:49;;;;;;;;;;;;;;;22.07;50.76;95371.47;1037872;28;1147;-73
2021/07/06 00:30:19;;;;;;;;;;;;;;;22.05;50.99;95369.09;1037336;28;1273;-72
2021/07/06 00:30:50;;;;;;;;;;;;;;;22.06;50.84;95370.66;1041470;28;981;-73
2021/07/06 00:31:20;;;;;;;;;;;;;;;22.04;50.78;95362.25;1038280;28;1634;-73
2021/07/06 00:31:51;;;;;;;;;;;;;;;22.04;50.80;95364.91;1039156;28;1147;-72
2021/07/06 00:32:21;;;;;;;;;;;;;;;22.03;50.83;95358.03;1037630;28;2241;-72
2021/07/06 00:32:52;;;;;;;;;;;;;;;22.04;50.82;95367.53;1038880;28;1198;-73
2021/07/06 00:33:22;;;;;;;;;;;;;;;22.05;51.04;95361.16;1036387;28;2115;-73
2021/07/06 00:33:52;;;;;;;;;;;;;;;22.04;50.96;95358.81;1037114;28;1191;-73
2021/07/06 00:34:23;;;;;;;;;;;;;;;22.04;51.07;95359.63;1037061;28;1069;-73
2021/07/06 00:34:53;;;;;;;;;;;;;;;22.04;50.93;95361.47;1040845;28;1111;-71
2021/07/06 00:35:23;;;;;;;;;;;;;;;22.03;50.85;95359.91;1037849;28;1171;-73
2021/07/06 00:35:54;;;;;;;;;;;;;;;22.03;50.83;95363.31;1040951;28;1206;-73
2021/07/06 00:36:24;;;;;;;;;;;;;;;22.03;50.97;95359.91;1041212;28;802;-73
2021/07/06 00:36:54;;;;;;;;;;;;;;;22.03;51.14;95363.31;1040344;28;1218;-73
2021/07/06 00:37:24;;;;;;;;;;;;;;;22.02;50.95;95367.03;1039935;28;1983;-73
2021/07/06 00:37:55;;;;;;;;;;;;;;;22.01;51.15;95368.09;1039674;28;1183;-72
2021/07/06 00:38:25;;;;;;;;;;;;;;;22.01;51.01;95357.53;1038171;28;2109;-73
2021/07/06 00:38:55;;;;;;;;;;;;;;;22.02;50.79;95363.63;1037496;28;1135;-73
2021/07/06 00:39:26;;;;;;;;;;;;;;;22.00;50.98;95361.28;1037153;28;1460;-73
2021/07/06 00:39:57;;;;;;;;;;;;;;;22.00;51.13;95363.91;1039566;28;1131;-73
2021/07/06 00:40:28;;;;;;;;;;;;;;;21.98;50.69;95363.41;1037089;28;1387;-72
2021/07/06 00:40:58;;;;;;;;;;;;;;;21.99;50.84;95364.22;1041198;28;1064;-71
2021/07/06 00:41:29;;;;;;;;;;;;;;;21.99;50.76;95366.84;1037204;28;1070;-72
2021/07/06 00:42:03;;;;;;;;;;;;;;;21.98;51.01;95360.78;1036496;28;1179;-73
2021/07/06 00:42:33;;;;;;;;;;;;;;;21.99;50.91;95364.97;1033031;28;1411;-74
2021/07/06 00:43:03;;;;;;;;;;;;;;;21.98;51.00;95362.63;1036842;28;1176;-73
2021/07/06 00:43:36;;;;;;;;;;;;;;;21.98;50.98;95360.78;1038028;28;2108;-74
2021/07/06 00:44:14;;;;;;;;;;;;;;;21.99;50.86;95362.34;1036677;28;2101;-73
2021/07/06 00:44:45;;;;;;;;;;;;;;;21.98;50.93;95358.16;1041821;28;1144;-73
2021/07/06 00:45:15;;;;;;;;;;;;;;;21.98;51.10;95368.69;1044025;28;1170;-73
2021/07/06 00:45:46;;;;;;;;;;;;;;;21.97;51.07;95369.75;1037328;28;1686;-72
2021/07/06 00:46:16;;;;;;;;;;;;;;;21.96;50.72;95360.28;1037421;28;1902;-73
2021/07/06 00:46:46;;;;;;;;;;;;;;;21.97;50.90;95367.13;1038401;28;1074;-72
2021/07/06 00:47:19;;;;;;;;;;;;;;;21.96;51.09;95362.94;1037417;28;1301;-72
2021/07/06 00:47:49;;;;;;;;;;;;;;;21.96;51.00;95359.50;1034363;28;1342;-73
2021/07/06 00:48:19;;;;;;;;;;;;;;;21.98;50.86;95366.06;1032712;28;951;-73
2021/07/06 00:48:50;;;;;;;;;;;;;;;21.97;50.80;95367.13;1032212;28;2142;-72
2021/07/06 00:49:20;;;;;;;;;;;;;;;21.97;50.91;95363.72;1037233;28;781;-73
2021/07/06 00:49:50;;;;;;;;;;;;;;;21.96;50.83;95368.22;1036723;28;1103;-73
2021/07/06 00:50:21;;;;;;;;;;;;;;;21.94;50.91;95357.16;1038779;28;1371;-73
2021/07/06 00:50:52;;;;;;;;;;;;;;;21.94;50.85;95357.16;1038487;28;2081;-72
2021/07/06 00:51:23;;;;;;;;;;;;;;;21.94;50.86;95359.81;1041552;28;806;-72
2021/07/06 00:51:53;;;;;;;;;;;;;;;21.94;50.92;95357.16;1041151;28;1167;-73
2021/07/06 00:52:23;;;;;;;;;;;;;;;21.94;51.09;95359.00;1038500;28;1171;-73
2021/07/06 00:52:54;;;;;;;;;;;;;;;21.93;50.95;95355.59;1037125;28;1601;-73
2021/07/06 00:53:24;;;;;;;;;;;;;;;21.93;50.86;95360.09;1036316;28;2050;-72
2021/07/06 00:53:54;;;;;;;;;;;;;;;21.92;51.10;95354.03;1039833;28;1486;-73
2021/07/06 00:54:24;;;;;;;;;;;;;;;21.94;50.87;95361.66;1041314;28;867;-73
2021/07/06 00:54:55;;;;;;;;;;;;;;;21.94;51.04;95361.66;1040540;28;1170;-73
2021/07/06 00:55:25;;;;;;;;;;;;;;;21.93;50.68;95358.22;1037091;28;1155;-72
2021/07/06 00:55:56;;;;;;;;;;;;;;;21.95;50.96;95350.03;1039243;28;1143;-73
2021/07/06 00:56:27;;;;;;;;;;;;;;;21.94;51.14;95351.88;1037219;28;847;-73
2021/07/06 00:56:58;;;;;;;;;;;;;;;21.94;51.10;95354.53;1032769;28;1413;-73
2021/07/06 00:57:29;;;;;;;;;;;;;;;21.95;50.99;95357.97;1029212;28;924;-72
2021/07/06 00:57:59;;;;;;;;;;;;;;;21.96;51.06;95349.75;1037248;28;1152;-71
2021/07/06 00:58:30;;;;;;;;;;;;;;;21.96;50.86;95355.00;1031855;28;2193;-73
2021/07/06 00:59:00;;;;;;;;;;;;;;;21.97;50.86;95356.56;1032629;28;969;-73
2021/07/06 00:59:30;;;;;;;;;;;;;;;21.97;50.70;95353.94;1032963;28;1089;-73
2021/07/06 01:00:03;;;;;;;;;;;;;;;21.97;50.82;95356.56;1036946;28;1218;-73
2021/07/06 01:00:33;;;;;;;;;;;;;;;21.98;50.97;95349.44;1037380;28;1205;-73
2021/07/06 01:01:04;;;;;;;;;;;;;;;21.97;50.82;95353.16;1038972;28;1715;-73
2021/07/06 01:01:34;;;;;;;;;;;;;;;21.97;50.94;95351.28;1037270;28;1140;-73
2021/07/06 01:02:05;;;;;;;;;;;;;;;21.96;50.94;95355.00;1038165;28;1111;-73
2021/07/06 01:02:35;;;;;;;;;;;;;;;21.97;50.87;95353.94;1037112;28;663;-73
2021/07/06 01:03:06;;;;;;;;;;;;;;;21.97;50.85;95355.81;1039514;28;1159;-74
2021/07/06 01:03:36;;;;;;;;;;;;;;;21.98;50.67;95350.22;1033441;28;2173;-73
2021/07/06 01:04:06;;;;;;;;;;;;;;;21.97;50.85;95353.94;1041189;28;1225;-73
2021/07/06 01:04:36;;;;;;;;;;;;;;;21.98;50.86;95352.06;1040449;28;1186;-73
2021/07/06 01:05:07;;;;;;;;;;;;;;;21.97;50.63;95351.28;1040889;28;1159;-73
2021/07/06 01:05:41;;;;;;;;;;;;;;;21.98;50.90;95352.06;1037433;28;844;-73
2021/07/06 01:06:11;;;;;;;;;;;;;;;21.97;50.80;95346.00;1037379;28;1910;-73
2021/07/06 01:06:41;;;;;;;;;;;;;;;21.97;50.75;95343.38;1037351;28;1277;-73
2021/07/06 01:07:11;;;;;;;;;;;;;;;21.98;50.88;95344.94;1037566;28;1147;-74
2021/07/06 01:07:42;;;;;;;;;;;;;;;21.99;50.72;95345.75;1037371;28;1104;-73
2021/07/06 01:08:12;;;;;;;;;;;;;;;21.99;50.93;95349.13;1036818;28;1187;-73
2021/07/06 01:08:45;;;;;;;;;;;;;;;21.98;50.92;95342.31;1036545;28;2061;-73
2021/07/06 01:09:16;;;;;;;;;;;;;;;21.99;50.91;95353.66;1039337;28;2081;-72
2021/07/06 01:09:46;;;;;;;;;;;;;;;21.98;50.91;95347.59;1040769;28;1249;-72
2021/07/06 01:10:16;;;;;;;;;;;;;;;21.98;50.88;95347.59;1041234;28;987;-73
2021/07/06 01:10:47;;;;;;;;;;;;;;;21.97;50.63;95346.00;1039963;28;1317;-72
2021/07/06 01:11:17;;;;;;;;;;;;;;;21.98;50.85;95347.59;1036996;28;1123;-73
2021/07/06 01:11:48;;;;;;;;;;;;;;;21.98;50.83;95347.59;1032872;28;1120;-72
2021/07/06 01:12:18;;;;;;;;;;;;;;;21.98;50.74;95352.88;1037177;28;1175;-72
2021/07/06 01:12:48;;;;;;;;;;;;;;;21.98;50.47;95347.59;1037064;28;1119;-72
2021/07/06 01:13:19;;;;;;;;;;;;;;;21.98;50.68;95341.53;1041080;28;1010;-72
2021/07/06 01:13:49;;;;;;;;;;;;;;;21.98;50.74;95342.31;1039285;28;2004;-72
2021/07/06 01:14:19;;;;;;;;;;;;;;;21.99;50.85;95349.13;1040739;28;1353;-72
2021/07/06 01:14:50;;;;;;;;;;;;;;;21.98;50.85;95344.94;1030251;28;1220;-72
2021/07/06 01:15:23;;;;;;;;;;;;;;;21.98;50.71;95341.53;1033121;28;1132;-72
2021/07/06 01:15:54;;;;;;;;;;;;;;;21.98;50.78;95344.16;1033038;28;1196;-72
2021/07/06 01:16:24;;;;;;;;;;;;;;;21.97;50.87;95335.44;1033580;28;952;-72
2021/07/06 01:16:54;;;;;;;;;;;;;;;21.99;50.93;95340.47;1038416;28;1143;-71
2021/07/06 01:17:25;;;;;;;;;;;;;;;21.98;50.58;95336.25;1037424;28;1974;-72
2021/07/06 01:17:58;;;;;;;;;;;;;;;21.98;50.52;95339.66;1037534;28;2145;-70
2021/07/06 01:18:29;;;;;;;;;;;;;;;21.99;50.49;95338.59;1037140;28;1006;-73
2021/07/06 01:18:59;;;;;;;;;;;;;;;22.00;50.58;95340.16;1040132;28;2112;-73
2021/07/06 01:19:29;;;;;;;;;;;;;;;22.01;50.46;95335.66;1038037;28;1175;-72
2021/07/06 01:20:05;;;;;;;;;;;;;;;22.00;50.54;95339.38;1039702;28;1414;-73
2021/07/06 01:20:36;;;;;;;;;;;;;;;21.99;50.59;95330.66;1034744;28;2222;-73
2021/07/06 01:21:06;;;;;;;;;;;;;;;22.00;50.83;95339.38;1035556;28;2207;-72
2021/07/06 01:21:36;;;;;;;;;;;;;;;22.00;50.58;95334.09;1037888;28;581;-73
2021/07/06 01:22:07;;;;;;;;;;;;;;;21.99;50.50;95328.03;1036953;28;1151;-72
2021/07/06 01:22:37;;;;;;;;;;;;;;;22.00;50.63;95329.59;1038902;28;2163;-72
2021/07/06 01:23:07;;;;;;;;;;;;;;;22.00;50.77;95334.09;1044259;28;1087;-72
2021/07/06 01:23:37;;;;;;;;;;;;;;;22.00;50.80;95323.53;1042990;28;2097;-75
2021/07/06 01:24:08;;;;;;;;;;;;;;;22.00;50.74;95323.53;1040952;28;1246;-75
2021/07/06 01:24:38;;;;;;;;;;;;;;;22.00;50.88;95326.97;1041346;28;1000;-75
2021/07/06 01:25:09;;;;;;;;;;;;;;;22.00;50.68;95331.47;1041148;28;777;-73
2021/07/06 01:25:39;;;;;;;;;;;;;;;22.00;50.49;95328.81;1039036;28;1698;-75
2021/07/06 01:26:10;;;;;;;;;;;;;;;21.99;50.53;95330.66;1036854;28;1902;-75
2021/07/06 01:26:41;;;;;;;;;;;;;;;22.00;50.76;95334.09;1037134;28;1186;-76
2021/07/06 01:27:11;;;;;;;;;;;;;;;21.99;50.71;95322.75;1038542;28;1163;-75
2021/07/06 01:27:41;;;;;;;;;;;;;;;21.99;50.83;95332.53;1040453;28;1220;-75
2021/07/06 01:28:11;;;;;;;;;;;;;;;21.99;50.82;95328.03;1041175;28;833;-75
2021/07/06 01:28:42;;;;;;;;;;;;;;;21.98;50.96;95323.84;1038823;28;2107;-75
2021/07/06 01:29:13;;;;;;;;;;;;;;;21.98;50.76;95325.69;1040937;28;1373;-76
2021/07/06 01:29:43;;;;;;;;;;;;;;;21.98;50.77;95326.47;1041035;28;1095;-75
2021/07/06 01:30:14;;;;;;;;;;;;;;;21.99;50.76;95320.09;1041139;28;1062;-75
2021/07/06 01:30:44;;;;;;;;;;;;;;;22.00;50.61;95323.53;1038973;28;1972;-75
2021/07/06 01:31:15;;;;;;;;;;;;;;;22.00;50.89;95326.97;1041299;28;947;-75
2021/07/06 01:31:48;;;;;;;;;;;;;;;21.98;50.64;95325.69;1041384;28;1214;-74
2021/07/06 01:32:19;;;;;;;;;;;;;;;21.98;50.76;95333.59;1036157;28;1874;-75
2021/07/06 01:32:49;;;;;;;;;;;;;;;21.96;50.82;95323.34;1038498;28;1123;-75
2021/07/06 01:33:22;;;;;;;;;;;;;;;21.95;50.80;95321.75;1041388;28;1074;-75
2021/07/06 01:33:56;;;;;;;;;;;;;;;21.97;50.77;95330.19;1041024;28;1210;-75
2021/07/06 01:34:26;;;;;;;;;;;;;;;21.96;50.87;95327.84;1037508;28;1241;-75
2021/07/06 01:34:56;;;;;;;;;;;;;;;21.95;50.80;95327.03;1039004;28;1131;-75
2021/07/06 01:35:26;;;;;;;;;;;;;;;21.95;50.83;95323.66;1040496;28;1155;-75
2021/07/06 01:35:59;;;;;;;;;;;;;;;21.96;50.72;95322.56;1039460;28;1163;-76
2021/07/06 01:36:30;;;;;;;;;;;;;;;21.95;50.66;95324.41;1041420;28;772;-75
2021/07/06 01:37:01;;;;;;;;;;;;;;;21.95;50.85;95327.03;1040886;28;1104;-75
2021/07/06 01:37:31;;;;;;;;;;;;;;;21.96;50.82;95326.00;1035966;28;1922;-74
2021/07/06 01:38:05;;;;;;;;;;;;;;;21.95;50.85;95319.13;1039000;28;2058;-75
2021/07/06 01:38:35;;;;;;;;;;;;;;;21.95;50.81;95324.41;1040703;28;903;-75
2021/07/06 01:39:06;;;;;;;;;;;;;;;21.96;50.84;95322.56;1041146;28;1185;-75
2021/07/06 01:39:36;;;;;;;;;;;;;;;21.95;50.70;95321.75;1039964;28;1130;-76
2021/07/06 01:40:06;;;;;;;;;;;;;;;21.95;50.84;95321.75;1036567;28;1116;-75
2021/07/06 01:40:37;;;;;;;;;;;;;;;21.95;50.85;95321.00;1036823;28;1352;-75
2021/07/06 01:41:07;;;;;;;;;;;;;;;21.95;50.83;95321.75;1036631;28;1135;-75
2021/07/06 01:41:38;;;;;;;;;;;;;;;21.94;50.74;95314.94;1041150;28;784;-75
2021/07/06 01:42:08;;;;;;;;;;;;;;;21.94;50.72;95316.78;1039273;28;1099;-75
2021/07/06 01:42:39;;;;;;;;;;;;;;;21.95;50.77;95311.22;1037034;28;2113;-75
2021/07/06 01:43:10;;;;;;;;;;;;;;;21.93;50.52;95308.09;1036605;28;1054;-75
2021/07/06 01:43:40;;;;;;;;;;;;;;;21.94;50.63;95312.31;1036884;28;1239;-75
2021/07/06 01:44:23;;;;;;;;;;;;;;;21.93;50.59;95310.72;1037123;28;785;-75
2021/07/06 01:45:03;;;;;;;;;;;;;;;21.92;50.54;95314.44;1036376;28;1077;-75
2021/07/06 01:45:34;;;;;;;;;;;;;;;21.91;50.58;95320.78;1038259;28;1734;-74
2021/07/06 01:46:04;;;;;;;;;;;;;;;21.91;51.10;95304.94;1039148;28;1185;-75
2021/07/06 01:46:40;;;;;;;;;;;;;;;21.91;50.91;95307.59;1034399;28;1935;-74
2021/07/06 01:47:10;;;;;;;;;;;;;;;21.92;50.87;95308.38;1036721;28;1211;-74
2021/07/06 01:47:44;;;;;;;;;;;;;;;21.92;50.74;95317.09;1036575;28;2164;-74
2021/07/06 01:48:14;;;;;;;;;;;;;;;21.93;50.74;95313.34;1036770;28;789;-75
2021/07/06 01:48:45;;;;;;;;;;;;;;;21.92;50.91;95306.53;1038246;28;1226;-74
2021/07/06 01:49:15;;;;;;;;;;;;;;;21.93;50.89;95309.97;1040984;28;800;-74
2021/07/06 01:49:45;;;;;;;;;;;;;;;21.92;50.75;95305.75;1037497;28;1289;-74
2021/07/06 01:50:16;;;;;;;;;;;;;;;21.92;50.76;95303.91;1038808;28;1131;-75
2021/07/06 01:50:47;;;;;;;;;;;;;;;21.92;50.80;95297.81;1038017;28;1293;-75
2021/07/06 01:51:17;;;;;;;;;;;;;;;21.92;50.65;95303.91;1037880;28;1276;-74
2021/07/06 01:51:47;;;;;;;;;;;;;;;21.92;50.71;95297.81;1038190;28;1218;-75
2021/07/06 01:52:18;;;;;;;;;;;;;;;21.92;50.66;95306.53;1041028;28;1057;-75
2021/07/06 01:52:52;;;;;;;;;;;;;;;21.92;50.67;95298.63;1035668;28;2117;-75
2021/07/06 01:53:22;;;;;;;;;;;;;;;21.94;50.61;95300.97;1036275;28;1108;-75
2021/07/06 01:53:52;;;;;;;;;;;;;;;21.94;50.67;95298.31;1036843;28;1564;-75
2021/07/06 01:54:23;;;;;;;;;;;;;;;21.94;50.53;95295.69;1032838;28;1522;-75
2021/07/06 01:54:53;;;;;;;;;;;;;;;21.94;50.49;95309.66;1030691;28;1207;-75
2021/07/06 01:55:24;;;;;;;;;;;;;;;21.95;50.80;95295.38;1032152;28;1729;-75
2021/07/06 01:55:54;;;;;;;;;;;;;;;21.95;50.73;95298.00;1034782;28;1124;-75
2021/07/06 01:56:25;;;;;;;;;;;;;;;21.95;50.71;95297.25;1037011;28;808;-75
2021/07/06 01:56:55;;;;;;;;;;;;;;;21.94;50.80;95300.97;1040457;28;1202;-75
2021/07/06 01:57:25;;;;;;;;;;;;;;;21.93;50.68;95297.53;1041031;28;777;-74
2021/07/06 01:57:57;;;;;;;;;;;;;;;21.93;50.61;95299.41;1037280;28;2055;-72
2021/07/06 01:58:28;;;;;;;;;;;;;;;21.92;50.82;95295.97;1036634;28;1170;-75
2021/07/06 01:58:58;;;;;;;;;;;;;;;21.92;50.72;95290.69;1039454;28;1175;-75
2021/07/06 01:59:28;;;;;;;;;;;;;;;21.91;50.70;95293.63;1039635;28;1135;-75
2021/07/06 01:59:58;;;;;;;;;;;;;;;21.90;50.61;95295.50;1037716;28;1311;-74
2021/07/06 02:00:30;;;;;;;;;;;;;;;21.89;51.03;95301.81;1037251;28;1218;-75
2021/07/06 02:01:00;;;;;;;;;;;;;;;21.89;50.82;95291.28;1039004;28;1135;-74
2021/07/06 02:01:30;;;;;;;;;;;;;;;21.90;50.97;95299.97;1038293;28;1139;-75
2021/07/06 02:02:01;;;;;;;;;;;;;;;21.89;51.07;95291.28;1039630;28;2105;-74
2021/07/06 02:02:31;;;;;;;;;;;;;;;21.88;50.75;95295.75;1041073;28;776;-74
2021/07/06 02:03:02;;;;;;;;;;;;;;;21.88;50.79;95299.50;1039285;28;2060;-74
2021/07/06 02:03:32;;;;;;;;;;;;;;;21.87;51.04;95288.16;1039593;28;1881;-74
2021/07/06 02:04:05;;;;;;;;;;;;;;;21.88;50.88;95289.72;1040278;28;1040;-75
2021/07/06 02:04:36;;;;;;;;;;;;;;;21.88;50.70;95292.38;1038041;28;1143;-75
2021/07/06 02:05:21;;;;;;;;;;;;;;;21.88;50.60;95295.00;1040635;28;1278;-73
2021/07/06 02:05:59;;;;;;;;;;;;;;;21.88;50.69;95283.66;1040744;28;1177;-74
2021/07/06 02:06:29;;;;;;;;;;;;;;;21.88;50.79;95284.44;1035712;28;1973;-74
2021/07/06 02:06:59;;;;;;;;;;;;;;;21.88;50.57;95288.94;1035597;28;1108;-74
2021/07/06 02:07:30;;;;;;;;;;;;;;;21.85;50.95;95280.53;1028803;28;1310;-74
2021/07/06 02:08:00;;;;;;;;;;;;;;;21.85;50.98;95285.81;1027452;28;2131;-76
2021/07/06 02:08:30;;;;;;;;;;;;;;;21.85;50.94;95285.81;1027799;28;800;-73
2021/07/06 02:09:01;;;;;;;;;;;;;;;21.85;50.56;95280.53;1035659;28;1175;-75
2021/07/06 02:09:31;;;;;;;;;;;;;;;21.85;50.67;95282.38;1040152;28;1222;-74
2021/07/06 02:10:02;;;;;;;;;;;;;;;21.84;50.71;95283.47;1041219;28;1178;-75
2021/07/06 02:10:33;;;;;;;;;;;;;;;21.82;50.95;95281.09;1039042;28;2088;-74
2021/07/06 02:11:04;;;;;;;;;;;;;;;21.82;50.94;95280.34;1040601;28;1115;-74
2021/07/06 02:11:34;;;;;;;;;;;;;;;21.80;50.84;95277.94;1037252;28;1722;-75
2021/07/06 02:12:05;;;;;;;;;;;;;;;21.81;50.64;95279.56;1040164;28;1147;-74
2021/07/06 02:12:35;;;;;;;;;;;;;;;21.80;50.94;95275.31;1036931;28;741;-74
2021/07/06 02:13:11;;;;;;;;;;;;;;;21.80;50.69;95277.94;1038595;28;2116;-74
2021/07/06 02:13:41;;;;;;;;;;;;;;;21.79;51.05;95272.97;1037476;28;1479;-75
2021/07/06 02:14:11;;;;;;;;;;;;;;;21.78;50.95;95274.81;1036758;28;1590;-75
2021/07/06 02:14:42;;;;;;;;;;;;;;;21.78;50.89;95271.41;1034676;28;1309;-75
2021/07/06 02:15:13;;;;;;;;;;;;;;;21.79;50.99;95270.31;1041076;28;860;-74
2021/07/06 02:15:44;;;;;;;;;;;;;;;21.77;50.93;95270.63;1044259;28;1106;-74
2021/07/06 02:16:14;;;;;;;;;;;;;;;21.78;51.22;95268.78;1038351;28;1265;-74
2021/07/06 02:16:44;;;;;;;;;;;;;;;21.77;50.90;95269.84;1037129;28;1190;-73
2021/07/06 02:17:15;;;;;;;;;;;;;;;21.76;50.80;95263.78;1040790;28;1033;-75
2021/07/06 02:17:45;;;;;;;;;;;;;;;21.76;51.09;95270.94;1039626;28;2155;-74
2021/07/06 02:18:19;;;;;;;;;;;;;;;21.76;50.94;95269.03;1040374;28;1794;-74
2021/07/06 02:18:49;;;;;;;;;;;;;;;21.76;50.96;95274.31;1041114;28;1213;-74
2021/07/06 02:19:20;;;;;;;;;;;;;;;21.75;51.06;95270.13;1040162;28;1119;-75
2021/07/06 02:19:50;;;;;;;;;;;;;;;21.76;50.84;95268.28;1037799;28;1334;-74
2021/07/06 02:20:22;;;;;;;;;;;;;;;21.76;50.91;95270.94;1040803;28;1209;-74
2021/07/06 02:20:53;;;;;;;;;;;;;;;21.77;50.97;95272.47;1035671;28;1696;-74
2021/07/06 02:21:23;;;;;;;;;;;;;;;21.77;50.80;95267.19;1032575;28;1490;-74
2021/07/06 02:21:53;;;;;;;;;;;;;;;21.76;50.98;95269.03;1032623;28;1223;-74
2021/07/06 02:22:24;;;;;;;;;;;;;;;21.78;50.89;95268.78;1031875;28;2072;-74
2021/07/06 02:22:54;;;;;;;;;;;;;;;21.76;50.94;95266.41;1031371;28;2086;-74
2021/07/06 02:23:25;;;;;;;;;;;;;;;21.76;50.78;95268.28;1035879;28;1026;-74
2021/07/06 02:23:55;;;;;;;;;;;;;;;21.76;50.82;95282.25;1025524;28;1928;-74
2021/07/06 02:24:25;;;;;;;;;;;;;;;21.76;51.04;95273.56;1026060;28;1523;-75
2021/07/06 02:24:56;;;;;;;;;;;;;;;21.76;50.84;95273.56;1036293;28;1522;-75
2021/07/06 02:25:26;;;;;;;;;;;;;;;21.76;50.94;95273.56;1036850;28;923;-74
2021/07/06 02:25:59;;;;;;;;;;;;;;;21.75;51.01;95272.78;1038586;28;1393;-74
2021/07/06 02:26:29;;;;;;;;;;;;;;;21.76;51.06;95278.84;1037003;28;1981;-75
2021/07/06 02:26:59;;;;;;;;;;;;;;;21.76;51.01;95273.56;1039264;28;1159;-75
2021/07/06 02:27:30;;;;;;;;;;;;;;;21.76;50.69;95270.94;1036655;28;1246;-76
2021/07/06 02:28:00;;;;;;;;;;;;;;;21.77;51.14;95275.13;1035867;28;2152;-74
2021/07/06 02:28:30;;;;;;;;;;;;;;;21.75;50.94;95270.13;1036562;28;876;-76
2021/07/06 02:29:01;;;;;;;;;;;;;;;21.75;51.07;95266.72;1039345;28;984;-76
2021/07/06 02:29:31;;;;;;;;;;;;;;;21.74;50.85;95267.81;1036943;28;1175;-76
2021/07/06 02:30:01;;;;;;;;;;;;;;;21.72;51.01;95265.44;1040140;28;1190;-75
2021/07/06 02:30:32;;;;;;;;;;;;;;;21.72;51.09;95267.31;1040563;28;2093;-75
2021/07/06 02:31:02;;;;;;;;;;;;;;;21.71;51.05;95263.09;1039637;28;1127;-75
2021/07/06 02:31:32;;;;;;;;;;;;;;;21.71;50.90;95266.53;1036700;28;1387;-75
2021/07/06 02:32:03;;;;;;;;;;;;;;;21.69;51.14;95266.03;1040006;28;1124;-75
2021/07/06 02:32:33;;;;;;;;;;;;;;;21.69;51.15;95273.16;1038757;28;2248;-75
2021/07/06 02:33:03;;;;;;;;;;;;;;;21.68;51.14;95266.31;1037083;28;2218;-75
2021/07/06 02:33:35;;;;;;;;;;;;;;;21.68;51.14;95268.94;1036672;28;947;-75
2021/07/06 02:34:05;;;;;;;;;;;;;;;21.68;51.07;95268.94;1037460;28;1199;-75
2021/07/06 02:34:35;;;;;;;;;;;;;;;21.66;50.98;95255.25;1036316;28;1128;-75
2021/07/06 02:35:06;;;;;;;;;;;;;;;21.67;51.19;95270.03;1039809;28;1159;-74
2021/07/06 02:35:36;;;;;;;;;;;;;;;21.67;51.04;95267.38;1040562;28;1111;-76
2021/07/06 02:36:07;;;;;;;;;;;;;;;21.66;51.11;95271.09;1040250;28;1139;-76
2021/07/06 02:36:37;;;;;;;;;;;;;;;21.65;50.93;95266.91;1036833;28;940;-73
2021/07/06 02:37:07;;;;;;;;;;;;;;;21.65;51.22;95274.81;1039221;28;1683;-75
2021/07/06 02:37:37;;;;;;;;;;;;;;;21.64;51.28;95274.03;1036861;28;936;-75
2021/07/06 02:38:08;;;;;;;;;;;;;;;21.64;50.99;95267.97;1037849;28;2151;-73
2021/07/06 02:38:39;;;;;;;;;;;;;;;21.64;51.20;95268.75;1036500;28;1147;-73
2021/07/06 02:39:09;;;;;;;;;;;;;;;21.64;51.08;95267.97;1040631;28;1034;-74
2021/07/06 02:39:39;;;;;;;;;;;;;;;21.64;50.99;95273.22;1039267;28;1142;-74
2021/07/06 02:40:10;;;;;;;;;;;;;;;21.65;51.08;95274.81;1041029;28;816;-75
2021/07/06 02:40:40;;;;;;;;;;;;;;;21.65;51.21;95266.91;1037542;28;1292;-74
2021/07/06 02:41:11;;;;;;;;;;;;;;;21.64;51.17;95271.38;1040499;28;1127;-74
2021/07/06 02:41:41;;;;;;;;;;;;;;;21.65;51.36;95270.31;1037354;28;1136;-74
2021/07/06 02:42:11;;;;;;;;;;;;;;;21.65;51.36;95267.69;1038251;28;1170;-74
2021/07/06 02:42:41;;;;;;;;;;;;;;;21.65;51.37;95278.25;1036696;28;1754;-75